Terminal Aerodrome Forecast
Issued by NWS Charleston, SC

Home | Current Version | Previous Version | Text Only | Print | Product List | Glossary On
Versions: 1 2 3 4 5 6 7 8 9 10 11 12
000
FTUS42 KCHS 231720
TAFSAV
TAF
KSAV 231720Z 2318/2418 16012G18KT P6SM SCT050 SCT200
     FM240100 16011KT P6SM VCSH SCT035 BKN060
     FM240700 19008KT 5SM SHRA BR SCT007 BKN020
     FM241400 25008KT P6SM BKN015=

USA.gov is the U.S. government's official web portal to all federal, state and local government web resources and services.